N9526G KIND-KPIE
Flight info
| Callsign | N9526G |
|---|---|
| Flight time | 1h 47m |
| Altitude | 45000 |
| Route | DAWNN1 IIU VXV/N0497F430 THRSR HONID BANGZ2 |
| Aircraft | C750/M-SBDE3FGHRWXY/S |
Departure
| Time | 2026-04-20 16:38 |
|---|---|
| Airport | Indianapolis International Airport (KIND) |
Arrival
| Time | 2026-04-20 18:25 |
|---|---|
| Airport | St. Petersburg Clearwater International Airport (KPIE) |
| Time | Latitude | Longitude | Altitude | Speed | Heading |
|---|---|---|---|---|---|
| 2026-04-20 16:09 | 39.72498 | -86.30278 | 781 ft | 0 kts | 105° |
| 2026-04-20 16:26 | 39.72498 | -86.30276 | 781 ft | 0 kts | 105° |
| 2026-04-20 16:26 | 39.72498 | -86.30275 | 781 ft | 0 kts | 105° |
| 2026-04-20 16:28 | 39.72496 | -86.30267 | 782 ft | 0 kts | 105° |
| 2026-04-20 16:29 | 39.72496 | -86.30266 | 782 ft | 1 kts | 110° |
| 2026-04-20 16:29 | 39.72469 | -86.30257 | 782 ft | 9 kts | 174° |
| 2026-04-20 16:30 | 39.72419 | -86.30243 | 784 ft | 8 kts | 151° |
| 2026-04-20 16:30 | 39.72363 | -86.30218 | 784 ft | 12 kts | 203° |
| 2026-04-20 16:30 | 39.72313 | -86.30276 | 784 ft | 9 kts | 224° |
| 2026-04-20 16:30 | 39.72272 | -86.30330 | 784 ft | 8 kts | 224° |
| 2026-04-20 16:31 | 39.72226 | -86.30385 | 783 ft | 10 kts | 225° |
| 2026-04-20 16:31 | 39.72160 | -86.30470 | 781 ft | 16 kts | 225° |
| 2026-04-20 16:31 | 39.72091 | -86.30560 | 780 ft | 12 kts | 223° |
| 2026-04-20 16:31 | 39.72025 | -86.30642 | 780 ft | 14 kts | 224° |
| 2026-04-20 16:32 | 39.71946 | -86.30743 | 779 ft | 17 kts | 224° |
| 2026-04-20 16:32 | 39.71883 | -86.30823 | 781 ft | 10 kts | 223° |
| 2026-04-20 16:32 | 39.71829 | -86.30888 | 782 ft | 11 kts | 225° |
| 2026-04-20 16:32 | 39.71771 | -86.30963 | 782 ft | 12 kts | 224° |
| 2026-04-20 16:33 | 39.71727 | -86.31021 | 784 ft | 10 kts | 225° |
| 2026-04-20 16:33 | 39.71658 | -86.31111 | 785 ft | 18 kts | 225° |
| 2026-04-20 16:33 | 39.71547 | -86.31250 | 783 ft | 21 kts | 224° |
| 2026-04-20 16:33 | 39.71453 | -86.31371 | 782 ft | 19 kts | 224° |
| 2026-04-20 16:34 | 39.71362 | -86.31485 | 779 ft | 20 kts | 224° |
| 2026-04-20 16:34 | 39.71261 | -86.31615 | 781 ft | 20 kts | 225° |
| 2026-04-20 16:34 | 39.71187 | -86.31710 | 780 ft | 13 kts | 225° |
| 2026-04-20 16:34 | 39.71119 | -86.31796 | 783 ft | 14 kts | 224° |
| 2026-04-20 16:35 | 39.71052 | -86.31883 | 784 ft | 12 kts | 227° |
| 2026-04-20 16:35 | 39.70988 | -86.31963 | 784 ft | 14 kts | 225° |
| 2026-04-20 16:35 | 39.70914 | -86.32057 | 786 ft | 16 kts | 224° |
| 2026-04-20 16:35 | 39.70848 | -86.32141 | 788 ft | 13 kts | 225° |
| 2026-04-20 16:36 | 39.70795 | -86.32209 | 782 ft | 3 kts | 224° |
| 2026-04-20 16:36 | 39.70781 | -86.32225 | 782 ft | 2 kts | 216° |
| 2026-04-20 16:36 | 39.70759 | -86.32211 | 782 ft | 6 kts | 135° |
| 2026-04-20 16:36 | 39.70716 | -86.32154 | 782 ft | 10 kts | 134° |
| 2026-04-20 16:37 | 39.70669 | -86.32097 | 783 ft | 6 kts | 137° |
| 2026-04-20 16:37 | 39.70660 | -86.32057 | 783 ft | 5 kts | 68° |
| 2026-04-20 16:37 | 39.70670 | -86.32042 | 784 ft | 4 kts | 42° |
| 2026-04-20 16:37 | 39.70907 | -86.31744 | 785 ft | 103 kts | 44° |
| 2026-04-20 16:38 | 39.71583 | -86.30876 | 936 ft | 151 kts | 45° |
| 2026-04-20 16:38 | 39.72360 | -86.29890 | 1495 ft | 166 kts | 45° |
| 2026-04-20 16:38 | 39.73207 | -86.28827 | 2023 ft | 169 kts | 47° |
| 2026-04-20 16:38 | 39.74093 | -86.27754 | 2549 ft | 183 kts | 45° |
| 2026-04-20 16:39 | 39.74895 | -86.26387 | 3038 ft | 198 kts | 69° |
| 2026-04-20 16:39 | 39.75398 | -86.24760 | 3662 ft | 197 kts | 53° |
| 2026-04-20 16:39 | 39.76559 | -86.23757 | 4146 ft | 210 kts | 20° |
| 2026-04-20 16:39 | 39.78002 | -86.23768 | 4337 ft | 216 kts | 340° |
| 2026-04-20 16:40 | 39.78798 | -86.24529 | 4473 ft | 212 kts | 310° |
| 2026-04-20 16:40 | 39.79283 | -86.26332 | 5132 ft | 229 kts | 279° |
| 2026-04-20 16:40 | 39.79101 | -86.28529 | 5382 ft | 256 kts | 255° |
| 2026-04-20 16:40 | 39.78544 | -86.30763 | 5802 ft | 260 kts | 253° |
| 2026-04-20 16:41 | 39.77927 | -86.33073 | 5873 ft | 283 kts | 253° |
| 2026-04-20 16:41 | 39.76751 | -86.36057 | 6952 ft | 294 kts | 229° |
| 2026-04-20 16:41 | 39.74933 | -86.37254 | 7535 ft | 288 kts | 196° |
| 2026-04-20 16:41 | 39.73544 | -86.37387 | 7846 ft | 306 kts | 182° |
| 2026-04-20 16:42 | 39.71425 | -86.37110 | 9036 ft | 302 kts | 176° |
| 2026-04-20 16:42 | 39.69314 | -86.36719 | 9973 ft | 313 kts | 176° |
| 2026-04-20 16:42 | 39.67094 | -86.36268 | 10445 ft | 336 kts | 175° |
| 2026-04-20 16:42 | 39.64690 | -86.35772 | 10625 ft | 363 kts | 175° |
| 2026-04-20 16:43 | 39.62111 | -86.35245 | 10943 ft | 382 kts | 175° |
| 2026-04-20 16:43 | 39.59490 | -86.34706 | 11800 ft | 382 kts | 175° |
| 2026-04-20 16:43 | 39.56844 | -86.34153 | 12512 ft | 388 kts | 175° |
| 2026-04-20 16:43 | 39.54159 | -86.33581 | 13235 ft | 393 kts | 175° |
| 2026-04-20 16:44 | 39.51486 | -86.33003 | 13918 ft | 398 kts | 175° |
| 2026-04-20 16:44 | 39.48738 | -86.32398 | 14548 ft | 403 kts | 175° |
| 2026-04-20 16:44 | 39.45958 | -86.31778 | 15182 ft | 407 kts | 175° |
| 2026-04-20 16:44 | 39.43152 | -86.31154 | 15811 ft | 412 kts | 175° |
| 2026-04-20 16:45 | 39.40311 | -86.30529 | 16460 ft | 416 kts | 175° |
| 2026-04-20 16:45 | 39.37447 | -86.29807 | 17106 ft | 422 kts | 172° |
| 2026-04-20 16:45 | 39.34555 | -86.29036 | 17768 ft | 426 kts | 174° |
| 2026-04-20 16:45 | 39.31612 | -86.28615 | 18405 ft | 426 kts | 181° |
| 2026-04-20 16:46 | 39.28639 | -86.28514 | 19030 ft | 429 kts | 185° |
| 2026-04-20 16:46 | 39.25642 | -86.28485 | 19597 ft | 434 kts | 184° |
| 2026-04-20 16:46 | 39.22602 | -86.28246 | 20205 ft | 441 kts | 180° |
| 2026-04-20 16:46 | 39.19535 | -86.27865 | 20806 ft | 446 kts | 179° |
| 2026-04-20 16:47 | 39.16426 | -86.27587 | 21428 ft | 448 kts | 182° |
| 2026-04-20 16:47 | 39.13298 | -86.27413 | 22023 ft | 453 kts | 182° |
| 2026-04-20 16:47 | 39.10132 | -86.27187 | 22612 ft | 458 kts | 181° |
| 2026-04-20 16:47 | 39.06936 | -86.26881 | 23199 ft | 463 kts | 180° |
| 2026-04-20 16:48 | 39.03704 | -86.26593 | 23791 ft | 466 kts | 181° |
| 2026-04-20 16:48 | 39.00457 | -86.26356 | 24317 ft | 470 kts | 181° |
| 2026-04-20 16:48 | 38.97178 | -86.26114 | 24819 ft | 474 kts | 181° |
| 2026-04-20 16:48 | 38.93872 | -86.25833 | 25319 ft | 478 kts | 181° |
| 2026-04-20 16:49 | 38.90546 | -86.25549 | 25824 ft | 481 kts | 181° |
| 2026-04-20 16:49 | 38.87187 | -86.25286 | 26314 ft | 485 kts | 181° |
| 2026-04-20 16:49 | 38.83812 | -86.25026 | 26813 ft | 489 kts | 181° |
| 2026-04-20 16:49 | 38.80408 | -86.24748 | 27300 ft | 492 kts | 181° |
| 2026-04-20 16:50 | 38.76981 | -86.24465 | 27783 ft | 495 kts | 181° |
| 2026-04-20 16:50 | 38.73530 | -86.24192 | 28287 ft | 499 kts | 181° |
| 2026-04-20 16:50 | 38.70049 | -86.23919 | 28776 ft | 503 kts | 181° |
| 2026-04-20 16:50 | 38.66542 | -86.23635 | 29276 ft | 507 kts | 181° |
| 2026-04-20 16:51 | 38.63021 | -86.22981 | 29715 ft | 517 kts | 171° |
| 2026-04-20 16:51 | 38.59551 | -86.21640 | 30209 ft | 525 kts | 161° |
| 2026-04-20 16:51 | 38.56234 | -86.19635 | 30665 ft | 530 kts | 152° |
| 2026-04-20 16:51 | 38.53162 | -86.17001 | 31102 ft | 535 kts | 142° |
| 2026-04-20 16:52 | 38.50412 | -86.13775 | 31522 ft | 537 kts | 132° |
| 2026-04-20 16:52 | 38.47910 | -86.10247 | 32138 ft | 535 kts | 131° |
| 2026-04-20 16:52 | 38.45446 | -86.06782 | 32703 ft | 535 kts | 131° |
| 2026-04-20 16:52 | 38.42910 | -86.03225 | 33282 ft | 534 kts | 131° |
| 2026-04-20 16:53 | 38.40416 | -85.99714 | 33871 ft | 534 kts | 131° |
| 2026-04-20 16:53 | 38.37924 | -85.96203 | 34445 ft | 534 kts | 131° |
| 2026-04-20 16:53 | 38.35460 | -85.92748 | 34915 ft | 534 kts | 131° |
| 2026-04-20 16:53 | 38.32923 | -85.89199 | 35362 ft | 535 kts | 131° |
| 2026-04-20 16:54 | 38.30447 | -85.85733 | 35802 ft | 536 kts | 132° |
| 2026-04-20 16:54 | 38.27938 | -85.82219 | 36263 ft | 537 kts | 132° |
| 2026-04-20 16:54 | 38.25419 | -85.78699 | 36729 ft | 538 kts | 132° |
| 2026-04-20 16:54 | 38.22894 | -85.75182 | 37197 ft | 539 kts | 132° |
| 2026-04-20 16:55 | 38.20364 | -85.71658 | 37676 ft | 540 kts | 132° |
| 2026-04-20 16:55 | 38.17831 | -85.68127 | 38163 ft | 541 kts | 132° |
| 2026-04-20 16:55 | 38.15295 | -85.64600 | 38651 ft | 541 kts | 132° |
| 2026-04-20 16:55 | 38.12751 | -85.61068 | 39122 ft | 542 kts | 132° |
| 2026-04-20 16:56 | 38.10066 | -85.57706 | 39449 ft | 542 kts | 140° |
| 2026-04-20 16:56 | 38.07065 | -85.54845 | 39849 ft | 538 kts | 149° |
| 2026-04-20 16:56 | 38.03885 | -85.52364 | 40333 ft | 534 kts | 153° |
| 2026-04-20 16:56 | 38.00656 | -85.50062 | 40810 ft | 532 kts | 154° |
| 2026-04-20 16:57 | 37.97460 | -85.47702 | 41279 ft | 532 kts | 150° |
| 2026-04-20 16:57 | 37.94362 | -85.45136 | 41752 ft | 531 kts | 148° |
| 2026-04-20 16:57 | 37.91278 | -85.42570 | 42223 ft | 529 kts | 150° |
| 2026-04-20 16:57 | 37.88138 | -85.40159 | 42721 ft | 526 kts | 152° |
| 2026-04-20 16:58 | 37.85002 | -85.37798 | 43176 ft | 524 kts | 152° |
| 2026-04-20 16:58 | 37.81913 | -85.35351 | 43642 ft | 523 kts | 150° |
| 2026-04-20 16:58 | 37.78849 | -85.32872 | 44101 ft | 522 kts | 150° |
| 2026-04-20 16:58 | 37.75774 | -85.30462 | 44558 ft | 519 kts | 152° |
| 2026-04-20 16:59 | 37.72689 | -85.28096 | 45011 ft | 518 kts | 152° |
| 2026-04-20 16:59 | 37.69627 | -85.25711 | 45392 ft | 517 kts | 151° |
| 2026-04-20 16:59 | 37.63425 | -85.20823 | 45378 ft | 533 kts | 151° |
| 2026-04-20 17:00 | 37.57035 | -85.15870 | 45405 ft | 545 kts | 151° |
| 2026-04-20 17:00 | 37.53789 | -85.13334 | 45405 ft | 552 kts | 151° |
| 2026-04-20 17:01 | 37.47177 | -85.08189 | 45405 ft | 565 kts | 151° |
| 2026-04-20 17:01 | 37.40412 | -85.02954 | 45385 ft | 576 kts | 151° |
| 2026-04-20 17:02 | 37.33551 | -84.97631 | 45382 ft | 580 kts | 152° |
| 2026-04-20 17:02 | 37.26711 | -84.92357 | 45372 ft | 581 kts | 152° |
| 2026-04-20 17:03 | 37.19828 | -84.87044 | 45347 ft | 581 kts | 151° |
| 2026-04-20 17:03 | 37.12940 | -84.81752 | 45342 ft | 581 kts | 151° |
| 2026-04-20 17:04 | 37.06062 | -84.76472 | 45344 ft | 579 kts | 152° |
| 2026-04-20 17:04 | 36.99190 | -84.71213 | 45328 ft | 579 kts | 152° |
| 2026-04-20 17:05 | 36.92307 | -84.65954 | 45349 ft | 580 kts | 152° |
| 2026-04-20 17:05 | 36.85432 | -84.60714 | 45333 ft | 578 kts | 152° |
| 2026-04-20 17:06 | 36.78537 | -84.55472 | 45345 ft | 582 kts | 152° |
| 2026-04-20 17:06 | 36.71629 | -84.50225 | 45326 ft | 581 kts | 152° |
| 2026-04-20 17:07 | 36.64716 | -84.44996 | 45324 ft | 581 kts | 152° |
| 2026-04-20 17:07 | 36.57810 | -84.39770 | 45319 ft | 583 kts | 152° |
| 2026-04-20 17:08 | 36.50844 | -84.34519 | 45305 ft | 587 kts | 152° |
| 2026-04-20 17:08 | 36.43856 | -84.29260 | 45297 ft | 587 kts | 153° |
| 2026-04-20 17:09 | 36.36922 | -84.24051 | 45296 ft | 587 kts | 153° |
| 2026-04-20 17:09 | 36.29919 | -84.18806 | 45290 ft | 590 kts | 153° |
| 2026-04-20 17:10 | 36.22890 | -84.13548 | 45288 ft | 590 kts | 153° |
| 2026-04-20 17:10 | 36.15867 | -84.08307 | 45294 ft | 589 kts | 153° |
| 2026-04-20 17:11 | 36.08850 | -84.03087 | 45294 ft | 588 kts | 153° |
| 2026-04-20 17:11 | 36.01863 | -83.97888 | 45315 ft | 585 kts | 153° |
| 2026-04-20 17:12 | 35.94691 | -83.93300 | 45293 ft | 576 kts | 164° |
| 2026-04-20 17:12 | 35.87015 | -83.91046 | 45310 ft | 561 kts | 180° |
| 2026-04-20 17:13 | 35.79369 | -83.91309 | 45276 ft | 542 kts | 195° |
| 2026-04-20 17:13 | 35.72130 | -83.93512 | 45307 ft | 534 kts | 202° |
| 2026-04-20 17:14 | 35.64982 | -83.95895 | 45330 ft | 540 kts | 198° |
| 2026-04-20 17:14 | 35.57524 | -83.97383 | 45310 ft | 542 kts | 195° |
| 2026-04-20 17:15 | 35.50183 | -83.99295 | 45307 ft | 538 kts | 199° |
| 2026-04-20 17:15 | 35.42789 | -84.01035 | 45325 ft | 542 kts | 196° |
| 2026-04-20 17:16 | 35.35416 | -84.02814 | 45298 ft | 540 kts | 199° |
| 2026-04-20 17:16 | 35.28051 | -84.04607 | 45335 ft | 540 kts | 197° |
| 2026-04-20 17:17 | 35.20682 | -84.06350 | 45330 ft | 538 kts | 198° |
| 2026-04-20 17:17 | 35.13329 | -84.08138 | 45325 ft | 539 kts | 197° |
| 2026-04-20 17:18 | 35.05964 | -84.09876 | 45328 ft | 539 kts | 198° |
| 2026-04-20 17:18 | 34.98604 | -84.11655 | 45333 ft | 540 kts | 198° |
| 2026-04-20 17:19 | 34.91238 | -84.13395 | 45330 ft | 539 kts | 198° |
| 2026-04-20 17:19 | 34.83882 | -84.15159 | 45309 ft | 538 kts | 198° |
| 2026-04-20 17:20 | 34.76533 | -84.16898 | 45339 ft | 538 kts | 198° |
| 2026-04-20 17:20 | 34.69189 | -84.18643 | 45338 ft | 537 kts | 198° |
| 2026-04-20 17:21 | 34.61845 | -84.20382 | 45336 ft | 538 kts | 198° |
| 2026-04-20 17:21 | 34.54515 | -84.22110 | 45348 ft | 535 kts | 199° |
| 2026-04-20 17:22 | 34.47239 | -84.23830 | 45360 ft | 537 kts | 198° |
| 2026-04-20 17:22 | 34.39922 | -84.25549 | 45352 ft | 536 kts | 199° |
| 2026-04-20 17:23 | 34.32600 | -84.27274 | 45333 ft | 535 kts | 199° |
| 2026-04-20 17:23 | 34.25307 | -84.28982 | 45341 ft | 533 kts | 199° |
| 2026-04-20 17:24 | 34.17997 | -84.30699 | 45354 ft | 537 kts | 199° |
| 2026-04-20 17:24 | 34.10659 | -84.32408 | 45353 ft | 536 kts | 199° |
| 2026-04-20 17:25 | 34.03347 | -84.34118 | 45351 ft | 534 kts | 200° |
| 2026-04-20 17:25 | 33.96038 | -84.35819 | 45350 ft | 536 kts | 200° |
| 2026-04-20 17:26 | 33.88728 | -84.37519 | 45346 ft | 535 kts | 200° |
| 2026-04-20 17:26 | 33.81417 | -84.39218 | 45319 ft | 535 kts | 200° |
| 2026-04-20 17:27 | 33.74116 | -84.40908 | 45356 ft | 535 kts | 200° |
| 2026-04-20 17:27 | 33.66808 | -84.42600 | 45360 ft | 535 kts | 200° |
| 2026-04-20 17:28 | 33.59338 | -84.43434 | 45378 ft | 555 kts | 188° |
| 2026-04-20 17:28 | 33.51606 | -84.43254 | 45364 ft | 556 kts | 188° |
| 2026-04-20 17:29 | 33.43855 | -84.43114 | 45367 ft | 557 kts | 188° |
| 2026-04-20 17:29 | 33.36116 | -84.42939 | 45364 ft | 556 kts | 188° |
| 2026-04-20 17:30 | 33.28376 | -84.42792 | 45356 ft | 557 kts | 188° |
| 2026-04-20 17:30 | 33.20632 | -84.42640 | 45357 ft | 556 kts | 189° |
| 2026-04-20 17:31 | 33.12890 | -84.42483 | 45357 ft | 556 kts | 189° |
| 2026-04-20 17:31 | 33.05150 | -84.42323 | 45354 ft | 556 kts | 189° |
| 2026-04-20 17:32 | 32.97403 | -84.42168 | 45350 ft | 558 kts | 188° |
| 2026-04-20 17:32 | 32.89623 | -84.41995 | 45350 ft | 559 kts | 188° |
| 2026-04-20 17:33 | 32.83158 | -84.41871 | 45347 ft | 559 kts | 188° |
| 2026-04-20 17:33 | 32.75381 | -84.41708 | 45314 ft | 558 kts | 188° |
| 2026-04-20 17:34 | 32.67591 | -84.41564 | 45353 ft | 562 kts | 188° |
| 2026-04-20 17:34 | 32.59772 | -84.41395 | 45349 ft | 561 kts | 187° |
| 2026-04-20 17:35 | 32.51976 | -84.41245 | 45343 ft | 560 kts | 188° |
| 2026-04-20 17:35 | 32.44178 | -84.41087 | 45343 ft | 561 kts | 187° |
| 2026-04-20 17:36 | 32.36414 | -84.40930 | 45349 ft | 562 kts | 187° |
| 2026-04-20 17:36 | 32.28599 | -84.40778 | 45343 ft | 561 kts | 187° |
| 2026-04-20 17:37 | 32.20788 | -84.40619 | 45331 ft | 561 kts | 187° |
| 2026-04-20 17:37 | 32.12993 | -84.40465 | 45347 ft | 560 kts | 187° |
| 2026-04-20 17:38 | 32.05198 | -84.40306 | 45344 ft | 561 kts | 187° |
| 2026-04-20 17:38 | 31.97396 | -84.40158 | 45344 ft | 561 kts | 187° |
| 2026-04-20 17:39 | 31.89610 | -84.39993 | 45348 ft | 558 kts | 187° |
| 2026-04-20 17:39 | 31.81831 | -84.39849 | 45347 ft | 559 kts | 187° |
| 2026-04-20 17:40 | 31.74051 | -84.39692 | 45343 ft | 559 kts | 187° |
| 2026-04-20 17:40 | 31.66273 | -84.39539 | 45321 ft | 558 kts | 186° |
| 2026-04-20 17:41 | 31.58539 | -84.39532 | 45355 ft | 556 kts | 187° |
| 2026-04-20 17:41 | 31.50797 | -84.39517 | 45349 ft | 556 kts | 188° |
| 2026-04-20 17:42 | 31.43065 | -84.39546 | 45347 ft | 556 kts | 188° |
| 2026-04-20 17:42 | 31.35340 | -84.39542 | 45342 ft | 553 kts | 187° |
| 2026-04-20 17:43 | 31.27653 | -84.39558 | 45338 ft | 553 kts | 187° |
| 2026-04-20 17:43 | 31.19952 | -84.39566 | 45333 ft | 554 kts | 187° |
| 2026-04-20 17:44 | 31.12250 | -84.39576 | 45328 ft | 553 kts | 187° |
| 2026-04-20 17:44 | 31.04580 | -84.39592 | 45323 ft | 551 kts | 187° |
| 2026-04-20 17:45 | 30.96906 | -84.39594 | 45327 ft | 552 kts | 187° |
| 2026-04-20 17:45 | 30.89238 | -84.39609 | 45326 ft | 551 kts | 187° |
| 2026-04-20 17:46 | 30.81569 | -84.39622 | 45323 ft | 549 kts | 187° |
| 2026-04-20 17:46 | 30.73988 | -84.39640 | 45322 ft | 549 kts | 187° |
| 2026-04-20 17:47 | 30.66346 | -84.39643 | 45315 ft | 549 kts | 187° |
| 2026-04-20 17:47 | 30.58708 | -84.39657 | 45315 ft | 549 kts | 187° |
| 2026-04-20 17:48 | 30.51067 | -84.39664 | 45318 ft | 549 kts | 187° |
| 2026-04-20 17:48 | 30.43421 | -84.39673 | 45309 ft | 550 kts | 187° |
| 2026-04-20 17:49 | 30.35744 | -84.38433 | 45308 ft | 568 kts | 170° |
| 2026-04-20 17:49 | 30.28421 | -84.34721 | 45326 ft | 584 kts | 153° |
| 2026-04-20 17:50 | 30.22009 | -84.28926 | 45315 ft | 587 kts | 141° |
| 2026-04-20 17:50 | 30.15958 | -84.22598 | 45302 ft | 586 kts | 144° |
| 2026-04-20 17:51 | 30.09654 | -84.16640 | 45293 ft | 587 kts | 143° |
| 2026-04-20 17:51 | 30.03528 | -84.10396 | 45283 ft | 587 kts | 143° |
| 2026-04-20 17:52 | 29.97266 | -84.04371 | 45255 ft | 586 kts | 144° |
| 2026-04-20 17:52 | 29.91130 | -83.98249 | 45272 ft | 582 kts | 143° |
| 2026-04-20 17:53 | 29.84945 | -83.92236 | 45270 ft | 582 kts | 144° |
| 2026-04-20 17:53 | 29.78366 | -83.86918 | 45266 ft | 574 kts | 155° |
| 2026-04-20 17:54 | 29.71338 | -83.82599 | 45272 ft | 573 kts | 156° |
| 2026-04-20 17:54 | 29.64437 | -83.78014 | 45267 ft | 570 kts | 155° |
| 2026-04-20 17:55 | 29.57530 | -83.73655 | 45261 ft | 565 kts | 156° |
| 2026-04-20 17:55 | 29.50658 | -83.69202 | 45261 ft | 568 kts | 155° |
| 2026-04-20 17:56 | 29.43757 | -83.64788 | 45255 ft | 567 kts | 156° |
| 2026-04-20 17:56 | 29.36856 | -83.60380 | 45245 ft | 565 kts | 156° |
| 2026-04-20 17:57 | 29.29724 | -83.57163 | 45251 ft | 549 kts | 170° |
| 2026-04-20 17:57 | 29.26109 | -83.56045 | 45005 ft | 514 kts | 171° |
| 2026-04-20 17:57 | 29.22815 | -83.54971 | 42983 ft | 476 kts | 171° |
| 2026-04-20 17:57 | 29.19641 | -83.53850 | 39741 ft | 470 kts | 172° |
| 2026-04-20 17:58 | 29.16506 | -83.52753 | 35647 ft | 472 kts | 173° |
| 2026-04-20 17:58 | 29.13445 | -83.51727 | 31295 ft | 452 kts | 173° |
| 2026-04-20 17:58 | 29.10437 | -83.50740 | 26344 ft | 456 kts | 171° |
| 2026-04-20 17:58 | 29.07438 | -83.49747 | 23353 ft | 438 kts | 168° |
| 2026-04-20 17:59 | 29.04603 | -83.48758 | 22071 ft | 409 kts | 168° |
| 2026-04-20 17:59 | 29.01931 | -83.47850 | 22092 ft | 409 kts | 169° |
| 2026-04-20 17:59 | 28.99121 | -83.46943 | 22119 ft | 428 kts | 169° |
| 2026-04-20 17:59 | 28.96294 | -83.45788 | 22065 ft | 432 kts | 161° |
| 2026-04-20 18:00 | 28.93618 | -83.44368 | 20786 ft | 423 kts | 159° |
| 2026-04-20 18:00 | 28.90929 | -83.42923 | 19397 ft | 425 kts | 159° |
| 2026-04-20 18:00 | 28.88262 | -83.41553 | 18634 ft | 420 kts | 160° |
| 2026-04-20 18:00 | 28.85610 | -83.40220 | 18747 ft | 417 kts | 160° |
| 2026-04-20 18:01 | 28.82954 | -83.38846 | 18873 ft | 419 kts | 159° |
| 2026-04-20 18:01 | 28.80298 | -83.37451 | 18946 ft | 422 kts | 159° |
| 2026-04-20 18:01 | 28.77637 | -83.36076 | 18940 ft | 417 kts | 159° |
| 2026-04-20 18:01 | 28.74989 | -83.34724 | 18941 ft | 418 kts | 159° |
| 2026-04-20 18:02 | 28.72340 | -83.33359 | 18938 ft | 418 kts | 159° |
| 2026-04-20 18:02 | 28.69696 | -83.31986 | 18936 ft | 418 kts | 159° |
| 2026-04-20 18:02 | 28.67048 | -83.30621 | 18929 ft | 418 kts | 159° |
| 2026-04-20 18:02 | 28.64398 | -83.29264 | 18930 ft | 418 kts | 159° |
| 2026-04-20 18:03 | 28.61748 | -83.27902 | 18931 ft | 418 kts | 159° |
| 2026-04-20 18:03 | 28.59100 | -83.26537 | 18927 ft | 418 kts | 159° |
| 2026-04-20 18:03 | 28.56451 | -83.25178 | 18609 ft | 418 kts | 159° |
| 2026-04-20 18:03 | 28.53822 | -83.23828 | 18030 ft | 411 kts | 159° |
| 2026-04-20 18:04 | 28.51235 | -83.22499 | 17496 ft | 407 kts | 159° |
| 2026-04-20 18:04 | 28.48666 | -83.21182 | 16950 ft | 402 kts | 158° |
| 2026-04-20 18:04 | 28.46132 | -83.19885 | 16435 ft | 398 kts | 158° |
| 2026-04-20 18:04 | 28.43613 | -83.18595 | 15911 ft | 397 kts | 158° |
| 2026-04-20 18:05 | 28.38596 | -83.16028 | 14871 ft | 393 kts | 158° |
| 2026-04-20 18:05 | 28.36103 | -83.14774 | 14348 ft | 389 kts | 157° |
| 2026-04-20 18:05 | 28.33623 | -83.13553 | 13815 ft | 388 kts | 157° |
| 2026-04-20 18:06 | 28.31164 | -83.12330 | 13295 ft | 385 kts | 157° |
| 2026-04-20 18:06 | 28.28733 | -83.11093 | 12790 ft | 381 kts | 155° |
| 2026-04-20 18:06 | 28.26552 | -83.09411 | 12281 ft | 381 kts | 139° |
| 2026-04-20 18:06 | 28.24571 | -83.07441 | 11789 ft | 378 kts | 138° |
| 2026-04-20 18:07 | 28.22618 | -83.05502 | 11292 ft | 363 kts | 139° |
| 2026-04-20 18:07 | 28.20857 | -83.03602 | 10811 ft | 338 kts | 129° |
| 2026-04-20 18:07 | 28.19794 | -83.01329 | 10378 ft | 317 kts | 107° |
| 2026-04-20 18:07 | 28.19439 | -82.98940 | 9974 ft | 302 kts | 91° |
| 2026-04-20 18:08 | 28.19310 | -82.96593 | 9578 ft | 296 kts | 90° |
| 2026-04-20 18:08 | 28.19181 | -82.94278 | 9191 ft | 292 kts | 89° |
| 2026-04-20 18:08 | 28.19052 | -82.91987 | 8800 ft | 289 kts | 91° |
| 2026-04-20 18:08 | 28.18923 | -82.89724 | 8418 ft | 287 kts | 90° |
| 2026-04-20 18:09 | 28.18805 | -82.87479 | 8044 ft | 283 kts | 88° |
| 2026-04-20 18:09 | 28.18938 | -82.85321 | 7994 ft | 270 kts | 81° |
| 2026-04-20 18:09 | 28.19114 | -82.83171 | 7999 ft | 276 kts | 80° |
| 2026-04-20 18:09 | 28.19020 | -82.81014 | 7925 ft | 285 kts | 100° |
| 2026-04-20 18:10 | 28.18087 | -82.78981 | 7933 ft | 293 kts | 124° |
| 2026-04-20 18:10 | 28.16512 | -82.77546 | 7397 ft | 294 kts | 150° |
| 2026-04-20 18:10 | 28.14516 | -82.76969 | 6719 ft | 294 kts | 169° |
| 2026-04-20 18:10 | 28.12533 | -82.76657 | 6186 ft | 285 kts | 170° |
| 2026-04-20 18:11 | 28.10569 | -82.76334 | 5649 ft | 287 kts | 169° |
| 2026-04-20 18:11 | 28.08610 | -82.75988 | 5266 ft | 290 kts | 168° |
| 2026-04-20 18:11 | 28.06627 | -82.75644 | 4851 ft | 287 kts | 167° |
| 2026-04-20 18:11 | 28.04641 | -82.75307 | 4416 ft | 281 kts | 167° |
| 2026-04-20 18:12 | 28.02717 | -82.74979 | 4020 ft | 278 kts | 168° |
| 2026-04-20 18:12 | 28.00905 | -82.74672 | 3996 ft | 259 kts | 166° |
| 2026-04-20 18:12 | 27.99053 | -82.74350 | 4002 ft | 270 kts | 166° |
| 2026-04-20 18:12 | 27.97238 | -82.74039 | 3996 ft | 255 kts | 167° |
| 2026-04-20 18:13 | 27.95575 | -82.73764 | 3691 ft | 236 kts | 165° |
| 2026-04-20 18:13 | 27.93895 | -82.73467 | 2776 ft | 250 kts | 166° |
| 2026-04-20 18:13 | 27.92203 | -82.73369 | 2379 ft | 239 kts | 186° |
| 2026-04-20 18:13 | 27.90774 | -82.74129 | 2341 ft | 223 kts | 216° |
| 2026-04-20 18:14 | 27.89676 | -82.75378 | 2447 ft | 229 kts | 225° |
| 2026-04-20 18:14 | 27.88608 | -82.76659 | 2509 ft | 213 kts | 225° |
| 2026-04-20 18:14 | 27.87614 | -82.77797 | 2486 ft | 196 kts | 218° |
| 2026-04-20 18:14 | 27.86335 | -82.78229 | 2313 ft | 197 kts | 169° |
| 2026-04-20 18:15 | 27.85277 | -82.77449 | 2293 ft | 178 kts | 114° |
| 2026-04-20 18:15 | 27.85165 | -82.76118 | 2403 ft | 172 kts | 71° |
| 2026-04-20 18:15 | 27.85755 | -82.74962 | 2542 ft | 170 kts | 54° |
| 2026-04-20 18:15 | 27.86285 | -82.73716 | 2322 ft | 178 kts | 66° |
| 2026-04-20 18:16 | 27.86719 | -82.72371 | 1842 ft | 180 kts | 66° |
| 2026-04-20 18:16 | 27.87461 | -82.71331 | 1260 ft | 162 kts | 42° |
| 2026-04-20 18:16 | 27.88227 | -82.70578 | 621 ft | 135 kts | 42° |
| 2026-04-20 18:16 | 27.88869 | -82.69979 | 383 ft | 111 kts | 38° |
| 2026-04-20 18:17 | 27.89466 | -82.69420 | 196 ft | 116 kts | 40° |
| 2026-04-20 18:17 | 27.90099 | -82.68822 | 35 ft | 116 kts | 41° |
| 2026-04-20 18:17 | 27.90648 | -82.68296 | 24 ft | 101 kts | 40° |
| 2026-04-20 18:17 | 27.91260 | -82.67733 | 599 ft | 125 kts | 39° |
| 2026-04-20 18:18 | 27.92056 | -82.67108 | 1112 ft | 159 kts | 21° |
| 2026-04-20 18:18 | 27.93228 | -82.67238 | 1670 ft | 193 kts | 342° |
| 2026-04-20 18:18 | 27.94249 | -82.68319 | 1867 ft | 206 kts | 300° |
| 2026-04-20 18:18 | 27.94464 | -82.69902 | 1900 ft | 204 kts | 268° |
| 2026-04-20 18:19 | 27.94114 | -82.71416 | 1977 ft | 194 kts | 247° |
| 2026-04-20 18:19 | 27.93436 | -82.72629 | 2171 ft | 177 kts | 233° |
| 2026-04-20 18:19 | 27.92625 | -82.73680 | 2111 ft | 179 kts | 227° |
| 2026-04-20 18:19 | 27.91772 | -82.74754 | 2169 ft | 190 kts | 225° |
| 2026-04-20 18:20 | 27.90888 | -82.75857 | 2218 ft | 201 kts | 229° |
| 2026-04-20 18:20 | 27.89971 | -82.77124 | 2112 ft | 210 kts | 234° |
| 2026-04-20 18:20 | 27.88884 | -82.78165 | 1797 ft | 209 kts | 203° |
| 2026-04-20 18:20 | 27.87587 | -82.78014 | 1678 ft | 177 kts | 147° |
| 2026-04-20 18:21 | 27.86686 | -82.77125 | 1763 ft | 169 kts | 122° |
| 2026-04-20 18:21 | 27.86125 | -82.76058 | 1649 ft | 145 kts | 112° |
| 2026-04-20 18:21 | 27.85713 | -82.75151 | 1565 ft | 125 kts | 110° |
| 2026-04-20 18:21 | 27.85450 | -82.74265 | 1399 ft | 111 kts | 97° |
| 2026-04-20 18:22 | 27.85432 | -82.73446 | 1312 ft | 102 kts | 73° |
| 2026-04-20 18:22 | 27.85641 | -82.72962 | 1202 ft | 108 kts | 50° |
| 2026-04-20 18:22 | 27.86240 | -82.72378 | 1068 ft | 117 kts | 34° |
| 2026-04-20 18:22 | 27.86889 | -82.71867 | 1122 ft | 108 kts | 38° |
| 2026-04-20 18:23 | 27.87060 | -82.71657 | 1045 ft | 110 kts | 51° |
| 2026-04-20 18:24 | 27.87373 | -82.71315 | 963 ft | 110 kts | 40° |
| 2026-04-20 18:24 | 27.87979 | -82.70812 | 803 ft | 109 kts | 41° |
| 2026-04-20 18:24 | 27.88596 | -82.70245 | 557 ft | 117 kts | 43° |
| 2026-04-20 18:24 | 27.89210 | -82.69654 | 291 ft | 115 kts | 40° |
| 2026-04-20 18:25 | 27.89812 | -82.69099 | 100 ft | 109 kts | 40° |
| 2026-04-20 18:25 | 27.90352 | -82.68582 | 22 ft | 90 kts | 40° |
| 2026-04-20 18:25 | 27.90752 | -82.68204 | 18 ft | 61 kts | 40° |
| 2026-04-20 18:25 | 27.90960 | -82.68012 | 17 ft | 29 kts | 38° |
| 2026-04-20 18:26 | 27.91123 | -82.67863 | 21 ft | 30 kts | 40° |
| 2026-04-20 18:26 | 27.91240 | -82.67777 | 20 ft | 14 kts | 4° |
| 2026-04-20 18:26 | 27.91281 | -82.67812 | 20 ft | 1 kts | 298° |
| 2026-04-20 18:26 | 27.91290 | -82.67836 | 20 ft | 0 kts | 258° |
| 2026-04-20 18:27 | 27.91285 | -82.67841 | 20 ft | 0 kts | 231° |
| 2026-04-20 18:27 | 27.91283 | -82.67845 | 20 ft | 0 kts | 230° |
| 2026-04-20 18:27 | 27.91267 | -82.67861 | 21 ft | 6 kts | 221° |
| 2026-04-20 18:27 | 27.91221 | -82.67905 | 21 ft | 11 kts | 220° |
| 2026-04-20 18:28 | 27.91149 | -82.67974 | 19 ft | 17 kts | 220° |
| 2026-04-20 18:28 | 27.91059 | -82.68059 | 16 ft | 14 kts | 219° |
| 2026-04-20 18:28 | 27.90985 | -82.68125 | 16 ft | 15 kts | 221° |
| 2026-04-20 18:28 | 27.90897 | -82.68215 | 16 ft | 19 kts | 217° |